createdAt,value
2022-08-17T00:02:26.439Z,99947.69
2022-08-17T00:04:55.417Z,99950.41
2022-08-17T00:07:23.049Z,99947.09
2022-08-17T00:09:50.467Z,99944.88
2022-08-17T00:12:43.317Z,99946.19
2022-08-17T00:15:08.203Z,99950.81
2022-08-17T00:17:38.116Z,99945.84
2022-08-17T00:20:06.106Z,99950.72
2022-08-17T00:22:36.421Z,99951.53
2022-08-17T00:25:12.210Z,99947.66
2022-08-17T00:27:39.782Z,99948.16
2022-08-17T00:30:10.347Z,99955.47
2022-08-17T00:33:12.527Z,99957.03
2022-08-17T00:35:31.917Z,99957.84
2022-08-17T00:37:58.821Z,99955.38
2022-08-17T00:40:26.739Z,99956.69
2022-08-17T00:43:33.239Z,99946.88
2022-08-17T00:46:02.172Z,99934.59
2022-08-17T00:48:30.931Z,99945.81
2022-08-17T00:51:22.809Z,99946.03
2022-08-17T00:54:18.202Z,99938.34
2022-08-17T00:56:51.209Z,99939.91
2022-08-17T00:59:21.991Z,99938.50
2022-08-17T01:01:50.948Z,99933.31
2022-08-17T01:04:21.249Z,99931.09
2022-08-17T01:06:49.683Z,99940.28
2022-08-17T01:09:18.002Z,99933.69
2022-08-17T01:11:48.371Z,99934.75
2022-08-17T01:14:15.431Z,99933.09
2022-08-17T01:16:42.497Z,99936.66
2022-08-17T01:19:18.312Z,99931.44
2022-08-17T01:22:07.756Z,99926.59
2022-08-17T01:24:37.161Z,99924.13
2022-08-17T01:27:10.259Z,99926.59
2022-08-17T01:29:41.107Z,99927.06
2022-08-17T01:32:08.606Z,99933.09
2022-08-17T01:34:42.706Z,99926.00
2022-08-17T01:37:13.284Z,99929.56
2022-08-17T01:39:48.808Z,99928.72
2022-08-17T01:42:26.791Z,99929.19
2022-08-17T01:44:59.024Z,99929.44
2022-08-17T01:47:26.212Z,99931.31
2022-08-17T01:49:53.317Z,99933.44
2022-08-17T01:52:22.063Z,99934.50
2022-08-17T01:54:51.521Z,99929.31
2022-08-17T01:57:18.912Z,99922.47
2022-08-17T01:59:46.067Z,99921.03
2022-08-17T02:02:13.019Z,99923.41
2022-08-17T02:04:59.230Z,99929.09
2022-08-17T02:07:27.024Z,99929.34
2022-08-17T02:09:54.550Z,99922.72
2022-08-17T02:12:37.839Z,99925.94
2022-08-17T02:15:08.487Z,99923.44
2022-08-17T02:17:35.897Z,99926.16
2022-08-17T02:20:03.849Z,99925.25
2022-08-17T02:22:31.154Z,99929.59
2022-08-17T02:25:01.890Z,99913.53
2022-08-17T02:27:31.254Z,99922.28
2022-08-17T02:29:58.345Z,99922.03
2022-08-17T02:32:28.536Z,99923.91
2022-08-17T02:35:00.335Z,99922.63
2022-08-17T02:37:29.882Z,99920.97
2022-08-17T02:39:58.555Z,99921.78
2022-08-17T02:42:31.523Z,99927.00
2022-08-17T02:44:59.214Z,99925.94
2022-08-17T02:47:28.771Z,99935.25
2022-08-17T02:54:40.614Z,99931.81
2022-08-17T02:57:10.301Z,99928.28
2022-08-17T02:59:46.738Z,99926.97
2022-08-17T03:02:16.179Z,99925.19
2022-08-17T03:04:43.263Z,99918.56
2022-08-17T03:07:10.252Z,99924.13
2022-08-17T03:09:37.940Z,99913.47
2022-08-17T03:12:13.061Z,99932.00
2022-08-17T03:14:41.967Z,99922.03
2022-08-17T03:17:16.920Z,99925.53
2022-08-17T03:19:45.027Z,99928.22
2022-08-17T03:22:36.247Z,99930.03
2022-08-17T03:24:59.059Z,99927.34
2022-08-17T03:27:26.513Z,99923.47
2022-08-17T03:29:53.628Z,99927.59
2022-08-17T03:32:20.930Z,99924.09
2022-08-17T03:34:48.726Z,99919.53
2022-08-17T03:37:15.928Z,99924.28
2022-08-17T03:39:43.034Z,99918.06
2022-08-17T03:42:31.359Z,99914.94
2022-08-17T03:45:01.026Z,99919.44
2022-08-17T03:47:47.196Z,99926.31
2022-08-17T03:50:34.687Z,99930.66
2022-08-17T03:53:25.277Z,99924.53
2022-08-17T03:56:10.852Z,99926.78
2022-08-17T03:58:38.049Z,99922.72
2022-08-17T04:01:07.036Z,99925.47
2022-08-17T04:03:34.207Z,99926.38
2022-08-17T04:06:02.456Z,99931.34
2022-08-17T04:08:30.255Z,99932.44
2022-08-17T04:10:58.354Z,99924.31
2022-08-17T04:13:25.622Z,99915.66
2022-08-17T04:15:53.831Z,99923.63
2022-08-17T04:18:20.913Z,99922.44
2022-08-17T04:20:47.995Z,99922.94
2022-08-17T04:23:18.563Z,99914.16
2022-08-17T04:25:49.238Z,99916.88
2022-08-17T04:28:20.236Z,99914.00
2022-08-17T04:30:48.201Z,99928.50
2022-08-17T04:33:21.726Z,99930.38
2022-08-17T04:35:51.530Z,99922.56
2022-08-17T04:38:24.590Z,99921.16
2022-08-17T04:41:10.363Z,99912.28
2022-08-17T04:43:39.329Z,99919.03
2022-08-17T04:46:10.086Z,99907.56
2022-08-17T04:48:40.494Z,99918.69
2022-08-17T04:51:11.444Z,99920.69
2022-08-17T04:53:44.499Z,99921.09
2022-08-17T04:56:16.001Z,99915.41
2022-08-17T04:58:45.776Z,99911.63
2022-08-17T05:01:12.938Z,99909.38
2022-08-17T05:03:40.104Z,99913.75
2022-08-17T05:06:07.671Z,99907.97
2022-08-17T05:08:35.146Z,99910.38
2022-08-17T05:11:02.284Z,99906.09
2022-08-17T05:13:32.780Z,99901.28
2022-08-17T05:16:02.206Z,99909.53
2022-08-17T05:18:30.493Z,99896.41
2022-08-17T05:20:57.736Z,99900.19
2022-08-17T05:23:27.706Z,99892.91
2022-08-17T05:26:10.431Z,99894.03
2022-08-17T05:28:48.170Z,99893.56
2022-08-17T05:31:15.688Z,99890.22
2022-08-17T05:33:46.168Z,99882.78
2022-08-17T05:36:41.862Z,99892.66
2022-08-17T05:39:02.780Z,99889.69
2022-08-17T05:41:29.724Z,99885.19
2022-08-17T05:43:56.815Z,99884.78
2022-08-17T05:46:27.621Z,99880.25
2022-08-17T05:49:10.038Z,99884.19
2022-08-17T05:51:40.081Z,99884.50
2022-08-17T05:54:49.743Z,99885.47
2022-08-17T05:57:43.618Z,99883.78
2022-08-17T06:00:30.807Z,99894.44
2022-08-17T06:03:10.572Z,99892.16
2022-08-17T06:06:05.175Z,99884.16
2022-08-17T06:08:51.638Z,99874.75
2022-08-17T06:11:28.152Z,99879.28
2022-08-17T06:14:10.257Z,99881.88
2022-08-17T06:16:45.736Z,99882.44
2022-08-17T06:19:38.570Z,99886.94
2022-08-17T06:22:08.769Z,99887.38
2022-08-17T06:24:43.163Z,99883.66
2022-08-17T06:27:36.240Z,99886.16
2022-08-17T06:30:09.544Z,99888.38
2022-08-17T06:32:44.797Z,99884.50
2022-08-17T06:35:15.639Z,99880.22
2022-08-17T06:38:37.178Z,99887.69
2022-08-17T06:41:38.967Z,99881.25
2022-08-17T06:44:43.211Z,99885.03
2022-08-17T06:47:32.862Z,99880.31
2022-08-17T06:50:31.935Z,99880.53
2022-08-17T06:53:38.993Z,99883.84
2022-08-17T06:56:11.732Z,99882.31
2022-08-17T06:58:43.180Z,99887.25
2022-08-17T07:01:18.387Z,99878.28
2022-08-17T07:03:49.902Z,99882.78
2022-08-17T07:06:23.643Z,99876.06
2022-08-17T07:09:06.480Z,99878.44
2022-08-17T07:11:36.500Z,99879.69
2022-08-17T07:14:15.190Z,99870.50
2022-08-17T07:16:50.797Z,99869.72
2022-08-17T07:19:22.708Z,99871.75
2022-08-17T07:26:13.352Z,99862.09
2022-08-17T07:28:40.484Z,99859.03
2022-08-17T07:31:14.234Z,99851.59
2022-08-17T07:33:59.893Z,99849.38
2022-08-17T07:36:30.030Z,99846.34
2022-08-17T07:38:58.397Z,99855.16
2022-08-17T07:41:25.489Z,99854.44
2022-08-17T07:44:15.482Z,99845.56
2022-08-17T07:47:10.844Z,99852.00
2022-08-17T07:49:46.352Z,99847.97
2022-08-17T07:52:50.821Z,99842.75
2022-08-17T07:55:30.651Z,99836.69
2022-08-17T07:57:59.484Z,99844.75
2022-08-17T08:00:32.058Z,99842.31
2022-08-17T08:03:26.116Z,99839.88
2022-08-17T08:06:01.256Z,99837.47
2022-08-17T08:08:52.262Z,99830.22
2022-08-17T08:11:33.256Z,99828.97
2022-08-17T08:14:28.708Z,99829.38
2022-08-17T08:17:07.246Z,99834.25
2022-08-17T08:19:36.575Z,99836.28
2022-08-17T08:22:11.390Z,99839.81
2022-08-17T08:25:02.682Z,99836.72
2022-08-17T08:27:52.616Z,99829.97
2022-08-17T08:30:21.895Z,99830.56
2022-08-17T08:33:04.655Z,99830.47
2022-08-17T08:35:58.939Z,99822.56
2022-08-17T08:38:34.569Z,99831.03
2022-08-17T08:41:12.329Z,99823.19
2022-08-17T08:44:10.236Z,99830.69
2022-08-17T08:47:18.308Z,99809.84
2022-08-17T08:50:37.470Z,99807.81
2022-08-17T08:53:21.984Z,99809.22
2022-08-17T08:56:03.567Z,99813.28
2022-08-17T08:58:43.681Z,99806.03
2022-08-17T09:01:27.949Z,99810.69
2022-08-17T09:04:25.416Z,99805.81
2022-08-17T09:06:58.530Z,99794.00
2022-08-17T09:09:43.636Z,99804.22
2022-08-17T09:12:48.776Z,99796.13
2022-08-17T09:15:20.957Z,99797.41
2022-08-17T09:19:01.230Z,99805.56
2022-08-17T09:21:22.597Z,99798.16
2022-08-17T09:24:00.062Z,99794.88
2022-08-17T09:26:39.658Z,99789.84
2022-08-17T09:29:11.574Z,99782.41
2022-08-17T09:32:01.750Z,99780.97
2022-08-17T09:34:48.374Z,99787.25
2022-08-17T09:37:43.273Z,99783.75
2022-08-17T09:40:23.687Z,99780.94
2022-08-17T09:43:01.043Z,99783.75
2022-08-17T09:45:51.257Z,99781.00
2022-08-17T09:48:30.642Z,99790.00
2022-08-17T09:51:24.557Z,99772.53
2022-08-17T09:53:51.837Z,99794.25
2022-08-17T09:56:27.441Z,99781.56
2022-08-17T09:59:00.571Z,99779.63
2022-08-17T10:01:36.874Z,99782.94
2022-08-17T10:04:12.993Z,99773.03
2022-08-17T10:06:52.305Z,99785.44
2022-08-17T10:09:39.526Z,99763.44
2022-08-17T10:12:20.467Z,99786.09
2022-08-17T10:15:07.709Z,99766.72
2022-08-17T10:18:01.285Z,99759.06
2022-08-17T10:21:19.518Z,99759.06
2022-08-17T10:24:11.302Z,99766.34
2022-08-17T10:26:55.844Z,99769.25
2022-08-17T10:29:48.478Z,99760.28
2022-08-17T10:32:42.282Z,99755.22
2022-08-17T10:35:18.767Z,99766.03
2022-08-17T10:38:26.866Z,99755.84
2022-08-17T10:41:06.005Z,99773.63
2022-08-17T10:44:39.054Z,99761.47
2022-08-17T10:47:03.691Z,99749.97
2022-08-17T10:49:34.103Z,99752.84
2022-08-17T10:52:20.731Z,99745.88
2022-08-17T10:55:09.115Z,99752.88
2022-08-17T10:57:41.106Z,99747.00
2022-08-17T11:00:14.829Z,99743.09
2022-08-17T11:02:50.187Z,99749.28
2022-08-17T11:05:43.847Z,99744.34
2022-08-17T11:08:36.402Z,99734.72
2022-08-17T11:11:35.976Z,99737.47
2022-08-17T11:14:24.000Z,99735.59
2022-08-17T11:17:09.373Z,99736.19
2022-08-17T11:20:04.896Z,99731.00
2022-08-17T11:22:55.767Z,99737.50
2022-08-17T11:25:38.595Z,99723.34
2022-08-17T11:28:24.683Z,99730.47
2022-08-17T11:30:57.733Z,99735.47
2022-08-17T11:33:34.230Z,99729.34
2022-08-17T11:36:42.415Z,99724.59
2022-08-17T11:39:23.150Z,99720.97
2022-08-17T11:41:55.282Z,99716.53
2022-08-17T11:44:31.333Z,99718.38
2022-08-17T11:47:27.508Z,99715.22
2022-08-17T11:50:27.725Z,99716.34
2022-08-17T11:52:55.659Z,99708.19
2022-08-17T11:55:39.556Z,99704.63
2022-08-17T11:58:29.559Z,99704.28
2022-08-17T12:01:23.047Z,99705.03
2022-08-17T12:04:00.844Z,99699.91
2022-08-17T12:06:42.640Z,99697.53
2022-08-17T12:09:17.264Z,99695.53
2022-08-17T12:12:10.976Z,99696.75
2022-08-17T12:15:08.072Z,99693.50
2022-08-17T12:17:40.140Z,99685.94
2022-08-17T12:20:22.207Z,99688.22
2022-08-17T12:23:12.223Z,99684.94
2022-08-17T12:25:47.673Z,99688.22
2022-08-17T12:28:26.796Z,99700.91
2022-08-17T12:30:54.640Z,99699.78
2022-08-17T12:33:25.778Z,99694.75
2022-08-17T12:36:04.905Z,99687.22
2022-08-17T12:38:34.814Z,99681.88
2022-08-17T12:41:25.041Z,99686.06
2022-08-17T12:44:09.620Z,99668.72
2022-08-17T12:46:48.195Z,99688.53
2022-08-17T12:49:29.965Z,99682.19
2022-08-17T12:52:23.756Z,99689.25
2022-08-17T12:55:01.975Z,99687.44
2022-08-17T12:57:43.085Z,99682.72
2022-08-17T13:00:16.456Z,99688.75
2022-08-17T13:02:54.560Z,99686.69
2022-08-17T13:05:28.649Z,99692.19
2022-08-17T13:07:58.163Z,99685.69
2022-08-17T13:10:37.844Z,99690.34
2022-08-17T13:13:19.552Z,99690.34
2022-08-17T13:15:58.810Z,99688.63
2022-08-17T13:18:34.244Z,99676.69
2022-08-17T13:21:01.414Z,99673.91
2022-08-17T13:23:32.369Z,99677.81
2022-08-17T13:26:06.899Z,99689.44
2022-08-17T13:28:36.799Z,99691.69
2022-08-17T13:31:24.174Z,99686.16
2022-08-17T13:33:51.219Z,99688.09
2022-08-17T13:36:30.259Z,99675.13
2022-08-17T13:39:27.424Z,99679.03
2022-08-17T13:41:56.171Z,99675.13
2022-08-17T13:44:35.005Z,99676.38
2022-08-17T13:47:04.753Z,99682.72
2022-08-17T13:49:48.490Z,99675.94
2022-08-17T13:52:40.422Z,99663.31
2022-08-17T13:55:18.570Z,99671.06
2022-08-17T13:57:57.786Z,99680.84
2022-08-17T14:00:36.525Z,99666.31
2022-08-17T14:03:05.748Z,99664.47
2022-08-17T14:05:33.934Z,99679.03
2022-08-17T14:08:06.616Z,99675.78
2022-08-17T14:10:36.657Z,99678.34
2022-08-17T14:13:04.587Z,99673.72
2022-08-17T14:15:54.712Z,99662.31
2022-08-17T14:18:34.291Z,99673.53
2022-08-17T14:21:08.808Z,99665.06
2022-08-17T14:23:37.305Z,99672.28
2022-08-17T14:26:04.991Z,99669.00
2022-08-17T14:28:32.635Z,99666.25
2022-08-17T14:31:00.881Z,99668.00
2022-08-17T14:34:04.565Z,99661.16
2022-08-17T14:36:32.475Z,99669.69
2022-08-17T14:38:59.456Z,99668.47
2022-08-17T14:41:26.568Z,99664.38
2022-08-17T14:43:54.022Z,99666.91
2022-08-17T14:46:21.049Z,99665.56
2022-08-17T14:48:51.733Z,99668.38
2022-08-17T14:51:23.306Z,99669.56
2022-08-17T14:53:53.126Z,99670.25
2022-08-17T14:56:22.432Z,99665.84
2022-08-17T14:58:49.459Z,99667.56
2022-08-17T15:01:20.908Z,99668.75
2022-08-17T15:03:48.609Z,99668.81
2022-08-17T15:06:16.471Z,99663.09
2022-08-17T15:08:43.966Z,99666.97
2022-08-17T15:11:14.793Z,99657.91
2022-08-17T15:13:53.030Z,99665.97
2022-08-17T15:16:20.623Z,99661.34
2022-08-17T15:18:48.525Z,99661.66
2022-08-17T15:21:16.077Z,99651.00
2022-08-17T15:23:43.026Z,99658.41
2022-08-17T15:26:11.242Z,99657.91
2022-08-17T15:28:38.406Z,99660.41
2022-08-17T15:31:06.835Z,99659.91
2022-08-17T15:33:34.025Z,99662.09
2022-08-17T15:36:06.569Z,99657.72
2022-08-17T15:38:36.897Z,99661.88
2022-08-17T15:41:04.086Z,99661.13
2022-08-17T15:43:32.682Z,99649.38
2022-08-17T15:46:01.822Z,99664.00
2022-08-17T15:48:43.498Z,99655.81
2022-08-17T15:51:24.181Z,99658.66
2022-08-17T15:54:00.187Z,99653.50
2022-08-17T15:56:32.235Z,99662.63
2022-08-17T15:58:59.840Z,99662.69
2022-08-17T16:02:27.724Z,99657.25
2022-08-17T16:04:30.381Z,99653.22
2022-08-17T16:06:58.844Z,99667.81
2022-08-17T16:09:26.023Z,99667.03
2022-08-17T16:11:55.536Z,99664.06
2022-08-17T16:14:28.877Z,99659.13
2022-08-17T16:17:00.903Z,99655.63
2022-08-17T16:19:28.025Z,99658.13
2022-08-17T16:21:55.101Z,99666.41
2022-08-17T16:24:22.167Z,99652.72
2022-08-17T16:26:49.171Z,99667.56
2022-08-17T16:29:16.275Z,99667.34
2022-08-17T16:31:43.624Z,99678.88
2022-08-17T16:34:17.285Z,99677.28
2022-08-17T16:36:54.927Z,99673.78
2022-08-17T16:39:27.558Z,99676.81
2022-08-17T16:41:56.148Z,99677.66
2022-08-17T16:44:27.549Z,99676.31
2022-08-17T16:46:54.796Z,99674.97
2022-08-17T16:49:36.238Z,99673.88
2022-08-17T16:52:10.418Z,99679.91
2022-08-17T16:54:41.970Z,99678.88
2022-08-17T16:57:10.501Z,99675.34
2022-08-17T16:59:41.867Z,99672.88
2022-08-17T17:02:13.870Z,99676.47
2022-08-17T17:04:53.770Z,99675.41
2022-08-17T17:07:33.985Z,99679.00
2022-08-17T17:10:09.107Z,99683.16
2022-08-17T17:13:01.183Z,99687.53
2022-08-17T17:15:31.760Z,99692.22
2022-08-17T17:18:07.097Z,99685.13
2022-08-17T17:20:47.724Z,99678.56
2022-08-17T17:23:37.840Z,99688.72
2022-08-17T17:26:40.748Z,99687.88
2022-08-17T17:29:58.495Z,99682.19
2022-08-17T17:32:38.090Z,99678.69
2022-08-17T17:35:34.186Z,99683.06
2022-08-17T17:38:12.299Z,99680.91
2022-08-17T17:40:44.898Z,99679.81
2022-08-17T17:43:37.748Z,99678.19
2022-08-17T17:46:26.722Z,99675.19
2022-08-17T17:48:55.437Z,99671.91
2022-08-17T17:52:09.605Z,99670.56
2022-08-17T17:54:53.115Z,99671.66
2022-08-17T17:57:55.886Z,99667.81
2022-08-17T18:00:37.375Z,99663.72
2022-08-17T18:03:31.100Z,99660.22
2022-08-17T18:06:32.161Z,99664.84
2022-08-17T18:09:33.849Z,99662.13
2022-08-17T18:12:19.950Z,99662.69
2022-08-17T18:15:01.533Z,99659.69
2022-08-17T18:17:45.554Z,99658.34
2022-08-17T18:20:36.472Z,99649.03
2022-08-17T18:23:11.228Z,99655.06
2022-08-17T18:25:48.075Z,99656.97
2022-08-17T18:28:30.819Z,99658.34
2022-08-17T18:31:17.526Z,99651.25
2022-08-17T18:34:45.753Z,99666.84
2022-08-17T18:37:11.149Z,99660.81
2022-08-17T18:39:45.378Z,99662.47
2022-08-17T18:42:29.069Z,99661.09
2022-08-17T18:44:56.389Z,99654.78
2022-08-17T18:47:29.476Z,99662.50
2022-08-17T18:50:24.523Z,99661.13
2022-08-17T18:52:51.610Z,99668.50
2022-08-17T18:55:23.184Z,99663.31
2022-08-17T18:57:53.138Z,99662.22
2022-08-17T19:00:36.307Z,99660.84
2022-08-17T19:03:22.108Z,99656.75
2022-08-17T19:05:55.151Z,99659.78
2022-08-17T19:08:28.409Z,99657.31
2022-08-17T19:10:59.898Z,99654.31
2022-08-17T19:13:47.586Z,99661.44
2022-08-17T19:16:21.129Z,99660.06
2022-08-17T19:19:00.278Z,99663.06
2022-08-17T19:21:32.487Z,99660.88
2022-08-17T19:24:09.891Z,99660.34
2022-08-17T19:26:54.501Z,99659.78
2022-08-17T19:29:29.503Z,99665.00
2022-08-17T19:31:58.726Z,99660.34
2022-08-17T19:34:33.906Z,99656.50
2022-08-17T19:37:10.275Z,99663.63
2022-08-17T19:39:55.668Z,99663.06
2022-08-17T19:42:55.140Z,99666.63
2022-08-17T19:45:45.617Z,99657.06
2022-08-17T19:48:21.303Z,99660.88
2022-08-17T19:51:31.481Z,99652.13
2022-08-17T19:54:35.154Z,99657.31
2022-08-17T19:57:23.290Z,99656.22
2022-08-17T20:00:13.801Z,99667.69
2022-08-17T20:02:50.362Z,99665.50
2022-08-17T20:05:26.298Z,99675.63
2022-08-17T20:08:01.442Z,99672.59
2022-08-17T20:10:54.866Z,99669.06
2022-08-17T20:13:33.145Z,99672.84
2022-08-17T20:16:04.673Z,99672.03
2022-08-17T20:18:37.726Z,99670.41
2022-08-17T20:21:19.857Z,99677.78
2022-08-17T20:23:50.777Z,99671.75
2022-08-17T20:26:39.419Z,99673.41
2022-08-17T20:29:09.085Z,99682.16
2022-08-17T20:31:59.382Z,99679.97
2022-08-17T20:34:33.458Z,99688.41
2022-08-17T20:37:27.957Z,99682.66
2022-08-17T20:39:58.007Z,99691.41
2022-08-17T20:42:26.030Z,99695.25
2022-08-17T20:45:01.833Z,99694.13
2022-08-17T20:48:00.769Z,99683.19
2022-08-17T20:50:38.786Z,99693.56
2022-08-17T20:53:10.184Z,99695.19
2022-08-17T20:55:51.398Z,99693.53
2022-08-17T20:58:23.198Z,99699.81
2022-08-17T21:00:56.211Z,99697.63
2022-08-17T21:03:23.808Z,99698.97
2022-08-17T21:06:00.790Z,99703.00
2022-08-17T21:08:54.468Z,99704.94
2022-08-17T21:11:56.748Z,99694.53
2022-08-17T21:14:57.479Z,99701.34
2022-08-17T21:17:39.398Z,99705.44
2022-08-17T21:20:34.790Z,99699.41
2022-08-17T21:23:35.094Z,99695.00
2022-08-17T21:26:30.385Z,99697.72
2022-08-17T21:29:31.136Z,99698.50
2022-08-17T21:32:00.969Z,99704.19
2022-08-17T21:34:42.609Z,99695.97
2022-08-17T21:37:19.082Z,99703.88
2022-08-17T21:39:51.938Z,99703.31
2022-08-17T21:42:34.665Z,99712.03
2022-08-17T21:45:11.138Z,99702.47
2022-08-17T21:47:43.557Z,99699.44
2022-08-17T21:50:25.766Z,99700.22
2022-08-17T21:52:54.202Z,99710.03
2022-08-17T21:55:29.838Z,99710.56
2022-08-17T21:58:13.727Z,99705.03
2022-08-17T22:00:46.126Z,99713.50
2022-08-17T22:03:26.184Z,99708.81
2022-08-17T22:05:53.162Z,99711.47
2022-08-17T22:08:23.876Z,99719.13
2022-08-17T22:11:03.213Z,99710.13
2022-08-17T22:13:30.316Z,99711.69
2022-08-17T22:16:15.654Z,99715.53
2022-08-17T22:18:58.209Z,99706.47
2022-08-17T22:21:25.596Z,99710.28
2022-08-17T22:24:04.439Z,99708.63
2022-08-17T22:27:11.764Z,99705.31
2022-08-17T22:29:58.455Z,99714.56
2022-08-17T22:32:55.573Z,99715.63
2022-08-17T22:35:29.244Z,99723.53
2022-08-17T22:37:57.275Z,99716.16
2022-08-17T22:40:29.143Z,99709.06
2022-08-17T22:42:57.811Z,99715.63
2022-08-17T22:45:31.260Z,99720.19
2022-08-17T22:48:01.587Z,99720.72
2022-08-17T22:50:33.110Z,99717.41
2022-08-17T22:53:33.670Z,99719.28
2022-08-17T22:56:19.105Z,99720.63
2022-08-17T22:59:12.463Z,99722.75
2022-08-17T23:01:41.382Z,99725.19
2022-08-17T23:04:12.195Z,99728.44
2022-08-17T23:06:42.637Z,99723.50
2022-08-17T23:09:09.711Z,99721.84
2022-08-17T23:11:49.089Z,99722.38
2022-08-17T23:14:20.033Z,99723.66
2022-08-17T23:16:51.172Z,99728.28
2022-08-17T23:19:23.899Z,99725.25
2022-08-17T23:21:54.446Z,99722.50
2022-08-17T23:24:24.892Z,99728.22
2022-08-17T23:26:57.483Z,99731.47
2022-08-17T23:29:26.791Z,99730.66
2022-08-17T23:31:53.863Z,99724.03
2022-08-17T23:34:24.322Z,99728.69
2022-08-17T23:36:52.347Z,99724.81
2022-08-17T23:39:27.323Z,99730.84
2022-08-17T23:42:00.545Z,99729.19
2022-08-17T23:44:28.977Z,99733.00
2022-08-17T23:46:58.393Z,99736.22
2022-08-17T23:49:25.567Z,99736.50
2022-08-17T23:51:54.801Z,99727.97
2022-08-17T23:54:21.682Z,99725.84
2022-08-17T23:56:48.718Z,99735.09
2022-08-17T23:59:17.934Z,99744.59
